sensor_id;sensor_type;location;lat;lon;timestamp;pressure;altitude;pressure_sealevel;temperature;humidity
20987;BME280;10652;50.306;8.570;2024-03-22T00:00:58;98624.72;;;6.37;91.06
20987;BME280;10652;50.306;8.570;2024-03-22T00:05:00;98619.56;;;6.35;91.36
20987;BME280;10652;50.306;8.570;2024-03-22T00:09:01;98615.16;;;6.36;91.33
20987;BME280;10652;50.306;8.570;2024-03-22T00:13:02;98624.97;;;6.23;91.17
20987;BME280;10652;50.306;8.570;2024-03-22T00:17:04;98620.69;;;6.21;91.85
20987;BME280;10652;50.306;8.570;2024-03-22T00:21:05;98612.81;;;6.22;92.17
20987;BME280;10652;50.306;8.570;2024-03-22T00:25:06;98602.28;;;6.30;91.72
20987;BME280;10652;50.306;8.570;2024-03-22T00:29:07;98589.22;;;6.28;90.97
20987;BME280;10652;50.306;8.570;2024-03-22T00:33:09;98590.47;;;6.09;90.82
20987;BME280;10652;50.306;8.570;2024-03-22T00:37:10;98578.63;;;5.94;90.76
20987;BME280;10652;50.306;8.570;2024-03-22T00:41:11;98593.53;;;5.86;91.59
20987;BME280;10652;50.306;8.570;2024-03-22T00:45:12;98585.88;;;5.79;92.08
20987;BME280;10652;50.306;8.570;2024-03-22T00:49:13;98577.25;;;5.77;92.90
20987;BME280;10652;50.306;8.570;2024-03-22T00:53:14;98574.66;;;5.75;93.45
20987;BME280;10652;50.306;8.570;2024-03-22T00:57:15;98565.91;;;5.79;93.28
20987;BME280;10652;50.306;8.570;2024-03-22T01:01:16;98561.50;;;5.81;93.22
20987;BME280;10652;50.306;8.570;2024-03-22T01:05:18;98551.91;;;5.83;93.15
20987;BME280;10652;50.306;8.570;2024-03-22T01:09:19;98553.56;;;5.86;93.47
20987;BME280;10652;50.306;8.570;2024-03-22T01:13:20;98544.94;;;5.85;92.82
20987;BME280;10652;50.306;8.570;2024-03-22T01:17:21;98547.66;;;5.78;92.64
20987;BME280;10652;50.306;8.570;2024-03-22T01:21:22;98543.50;;;5.69;92.85
20987;BME280;10652;50.306;8.570;2024-03-22T01:25:27;98542.81;;;5.59;92.30
20987;BME280;10652;50.306;8.570;2024-03-22T01:29:28;98547.34;;;5.50;91.69
20987;BME280;10652;50.306;8.570;2024-03-22T01:33:32;98542.97;;;5.50;92.08
20987;BME280;10652;50.306;8.570;2024-03-22T01:37:33;98542.97;;;5.50;91.77
20987;BME280;10652;50.306;8.570;2024-03-22T01:41:34;98549.28;;;5.39;90.99
20987;BME280;10652;50.306;8.570;2024-03-22T01:45:36;98539.16;;;5.24;90.44
20987;BME280;10652;50.306;8.570;2024-03-22T01:49:37;98543.63;;;5.17;91.53
20987;BME280;10652;50.306;8.570;2024-03-22T01:53:39;98539.22;;;5.21;92.44
20987;BME280;10652;50.306;8.570;2024-03-22T01:57:40;98534.81;;;5.23;92.30
20987;BME280;10652;50.306;8.570;2024-03-22T02:01:45;98526.13;;;5.24;92.30
20987;BME280;10652;50.306;8.570;2024-03-22T02:05:46;98513.16;;;5.21;91.07
20987;BME280;10652;50.306;8.570;2024-03-22T02:09:48;98513.31;;;5.11;91.62
20987;BME280;10652;50.306;8.570;2024-03-22T02:13:49;98506.34;;;5.13;92.70
20987;BME280;10652;50.306;8.570;2024-03-22T02:17:50;98507.97;;;5.19;93.22
20987;BME280;10652;50.306;8.570;2024-03-22T02:21:51;98502.81;;;5.18;93.68
20987;BME280;10652;50.306;8.570;2024-03-22T02:25:52;98493.31;;;5.13;93.84
20987;BME280;10652;50.306;8.570;2024-03-22T02:29:54;98498.69;;;5.04;93.49
20987;BME280;10652;50.306;8.570;2024-03-22T02:33:55;98496.16;;;5.00;93.71
20987;BME280;10652;50.306;8.570;2024-03-22T02:37:56;98493.03;;;4.81;93.64
20987;BME280;10652;50.306;8.570;2024-03-22T02:41:59;98488.88;;;4.69;95.16
20987;BME280;10652;50.306;8.570;2024-03-22T02:46:00;98484.53;;;4.70;95.79
20987;BME280;10652;50.306;8.570;2024-03-22T02:50:01;98483.59;;;4.76;96.26
20987;BME280;10652;50.306;8.570;2024-03-22T02:54:04;98476.50;;;4.82;96.47
20987;BME280;10652;50.306;8.570;2024-03-22T02:58:06;98472.00;;;4.92;96.55
20987;BME280;10652;50.306;8.570;2024-03-22T03:02:07;98470.97;;;5.00;96.00
20987;BME280;10652;50.306;8.570;2024-03-22T03:06:09;98456.22;;;5.02;95.00
20987;BME280;10652;50.306;8.570;2024-03-22T03:10:10;98451.88;;;5.01;95.35
20987;BME280;10652;50.306;8.570;2024-03-22T03:14:11;98449.28;;;5.01;93.97
20987;BME280;10652;50.306;8.570;2024-03-22T03:18:12;98442.41;;;4.97;93.57
20987;BME280;10652;50.306;8.570;2024-03-22T03:22:13;98437.13;;;5.00;93.64
20987;BME280;10652;50.306;8.570;2024-03-22T03:26:15;98445.03;;;4.97;92.84
20987;BME280;10652;50.306;8.570;2024-03-22T03:30:16;98445.94;;;4.95;92.99
20987;BME280;10652;50.306;8.570;2024-03-22T03:34:17;98447.72;;;4.91;93.36
20987;BME280;10652;50.306;8.570;2024-03-22T03:38:18;98442.81;;;4.76;92.87
20987;BME280;10652;50.306;8.570;2024-03-22T03:42:19;98432.50;;;4.70;93.81
20987;BME280;10652;50.306;8.570;2024-03-22T03:46:20;98422.88;;;4.75;94.12
20987;BME280;10652;50.306;8.570;2024-03-22T03:50:21;98427.06;;;4.82;94.31
20987;BME280;10652;50.306;8.570;2024-03-22T03:54:23;98407.88;;;4.89;94.46
20987;BME280;10652;50.306;8.570;2024-03-22T03:58:24;98402.53;;;4.95;94.20
20987;BME280;10652;50.306;8.570;2024-03-22T04:02:25;98400.69;;;5.00;93.68
20987;BME280;10652;50.306;8.570;2024-03-22T04:06:26;98393.78;;;4.99;92.99
20987;BME280;10652;50.306;8.570;2024-03-22T04:10:27;98392.03;;;5.00;93.39
20987;BME280;10652;50.306;8.570;2024-03-22T04:14:28;98394.69;;;4.98;92.82
20987;BME280;10652;50.306;8.570;2024-03-22T04:18:29;98392.34;;;4.85;92.93
20987;BME280;10652;50.306;8.570;2024-03-22T04:22:31;98380.34;;;4.76;94.60
20987;BME280;10652;50.306;8.570;2024-03-22T04:26:32;98383.72;;;4.81;96.34
20987;BME280;10652;50.306;8.570;2024-03-22T04:30:33;98374.78;;;4.94;97.06
20987;BME280;10652;50.306;8.570;2024-03-22T04:34:34;98384.09;;;5.06;97.61
20987;BME280;10652;50.306;8.570;2024-03-22T04:38:35;98383.91;;;5.17;97.29
20987;BME280;10652;50.306;8.570;2024-03-22T04:42:37;98382.88;;;5.24;97.55
20987;BME280;10652;50.306;8.570;2024-03-22T04:46:38;98377.53;;;5.30;97.50
20987;BME280;10652;50.306;8.570;2024-03-22T04:50:39;98380.78;;;5.41;97.71
20987;BME280;10652;50.306;8.570;2024-03-22T04:54:41;98379.66;;;5.52;97.37
20987;BME280;10652;50.306;8.570;2024-03-22T04:58:42;98376.78;;;5.65;96.98
20987;BME280;10652;50.306;8.570;2024-03-22T05:02:43;98376.63;;;5.72;95.60
20987;BME280;10652;50.306;8.570;2024-03-22T05:06:44;98379.97;;;5.77;94.23
20987;BME280;10652;50.306;8.570;2024-03-22T05:10:45;98371.34;;;5.75;93.83
20987;BME280;10652;50.306;8.570;2024-03-22T05:14:46;98367.91;;;5.73;93.83
20987;BME280;10652;50.306;8.570;2024-03-22T05:18:47;98374.91;;;5.71;94.33
20987;BME280;10652;50.306;8.570;2024-03-22T05:22:49;98371.34;;;5.75;95.11
20987;BME280;10652;50.306;8.570;2024-03-22T05:26:50;98375.50;;;5.82;94.77
20987;BME280;10652;50.306;8.570;2024-03-22T05:30:51;98371.94;;;5.86;94.79
20987;BME280;10652;50.306;8.570;2024-03-22T05:34:52;98370.88;;;5.95;95.06
20987;BME280;10652;50.306;8.570;2024-03-22T05:38:54;98373.31;;;6.02;94.82
20987;BME280;10652;50.306;8.570;2024-03-22T05:42:55;98367.03;;;6.10;94.88
20987;BME280;10652;50.306;8.570;2024-03-22T05:46:57;98359.09;;;6.14;94.73
20987;BME280;10652;50.306;8.570;2024-03-22T05:50:58;98359.78;;;6.22;94.69
20987;BME280;10652;50.306;8.570;2024-03-22T05:54:59;98351.72;;;6.33;95.61
20987;BME280;10652;50.306;8.570;2024-03-22T05:59:00;98349.53;;;6.50;95.50
20987;BME280;10652;50.306;8.570;2024-03-22T06:03:02;98345.66;;;6.65;95.85
20987;BME280;10652;50.306;8.570;2024-03-22T06:07:03;98338.38;;;6.77;95.56
20987;BME280;10652;50.306;8.570;2024-03-22T06:11:07;98345.88;;;6.89;95.48
20987;BME280;10652;50.306;8.570;2024-03-22T06:15:08;98332.34;;;7.06;95.64
20987;BME280;10652;50.306;8.570;2024-03-22T06:19:10;98333.28;;;7.33;95.23
20987;BME280;10652;50.306;8.570;2024-03-22T06:23:11;98321.34;;;7.54;94.30
20987;BME280;10652;50.306;8.570;2024-03-22T06:27:12;98325.09;;;7.73;95.79
20987;BME280;10652;50.306;8.570;2024-03-22T06:31:14;98325.88;;;7.76;94.28
20987;BME280;10652;50.306;8.570;2024-03-22T06:35:15;98318.72;;;7.81;93.60
20987;BME280;10652;50.306;8.570;2024-03-22T06:39:16;98322.88;;;7.89;92.75
20987;BME280;10652;50.306;8.570;2024-03-22T06:43:18;98326.13;;;7.95;92.50
20987;BME280;10652;50.306;8.570;2024-03-22T06:47:19;98316.22;;;8.05;91.75
20987;BME280;10652;50.306;8.570;2024-03-22T06:51:21;98305.69;;;8.08;91.38
20987;BME280;10652;50.306;8.570;2024-03-22T06:55:22;98304.47;;;8.18;92.33
20987;BME280;10652;50.306;8.570;2024-03-22T06:59:24;98295.56;;;8.23;92.04
20987;BME280;10652;50.306;8.570;2024-03-22T07:03:25;98287.47;;;8.31;92.22
20987;BME280;10652;50.306;8.570;2024-03-22T07:07:26;98287.91;;;8.44;92.56
20987;BME280;10652;50.306;8.570;2024-03-22T07:11:27;98291.00;;;8.55;92.62
20987;BME280;10652;50.306;8.570;2024-03-22T07:15:28;98287.03;;;8.68;93.18
20987;BME280;10652;50.306;8.570;2024-03-22T07:19:31;98294.06;;;8.91;92.75
20987;BME280;10652;50.306;8.570;2024-03-22T07:23:33;98291.28;;;9.19;92.40
20987;BME280;10652;50.306;8.570;2024-03-22T07:27:36;98291.03;;;9.48;91.70
20987;BME280;10652;50.306;8.570;2024-03-22T07:31:37;98282.16;;;9.74;90.75
20987;BME280;10652;50.306;8.570;2024-03-22T07:35:38;98279.44;;;9.98;89.51
20987;BME280;10652;50.306;8.570;2024-03-22T07:39:39;98284.59;;;10.22;87.77
20987;BME280;10652;50.306;8.570;2024-03-22T07:43:40;98277.41;;;10.45;87.02
20987;BME280;10652;50.306;8.570;2024-03-22T07:47:41;98279.06;;;10.68;85.73
20987;BME280;10652;50.306;8.570;2024-03-22T07:51:44;98277.31;;;10.87;84.76
20987;BME280;10652;50.306;8.570;2024-03-22T07:55:45;98266.78;;;11.08;83.69
20987;BME280;10652;50.306;8.570;2024-03-22T07:59:46;98262.47;;;11.25;82.69
20987;BME280;10652;50.306;8.570;2024-03-22T08:03:49;98258.19;;;11.42;81.88
20987;BME280;10652;50.306;8.570;2024-03-22T08:07:50;98251.59;;;11.52;81.17
20987;BME280;10652;50.306;8.570;2024-03-22T08:11:51;98250.34;;;11.59;80.28
20987;BME280;10652;50.306;8.570;2024-03-22T08:15:52;98255.97;;;11.70;79.81
20987;BME280;10652;50.306;8.570;2024-03-22T08:19:54;98252.81;;;11.80;79.01
20987;BME280;10652;50.306;8.570;2024-03-22T08:23:55;98262.06;;;11.89;78.90
20987;BME280;10652;50.306;8.570;2024-03-22T08:27:57;98243.81;;;12.03;78.38
20987;BME280;10652;50.306;8.570;2024-03-22T08:31:59;98236.59;;;12.24;77.18
20987;BME280;10652;50.306;8.570;2024-03-22T08:36:00;98237.28;;;12.45;76.15
20987;BME280;10652;50.306;8.570;2024-03-22T08:40:02;98232.66;;;12.67;74.40
20987;BME280;10652;50.306;8.570;2024-03-22T08:44:05;98221.50;;;12.78;71.79
20987;BME280;10652;50.306;8.570;2024-03-22T08:48:06;98214.66;;;12.91;71.25
20987;BME280;10652;50.306;8.570;2024-03-22T08:52:08;98218.84;;;13.10;71.59
20987;BME280;10652;50.306;8.570;2024-03-22T08:56:09;98211.22;;;13.22;69.32
20987;BME280;10652;50.306;8.570;2024-03-22T09:00:11;98201.69;;;13.35;68.26
20987;BME280;10652;50.306;8.570;2024-03-22T09:04:12;98193.69;;;13.52;67.89
20987;BME280;10652;50.306;8.570;2024-03-22T09:08:14;98193.78;;;13.66;66.68
20987;BME280;10652;50.306;8.570;2024-03-22T09:12:15;98184.59;;;13.87;66.24
20987;BME280;10652;50.306;8.570;2024-03-22T09:16:16;98177.03;;;14.11;65.13
20987;BME280;10652;50.306;8.570;2024-03-22T09:20:17;98180.19;;;14.32;64.00
20987;BME280;10652;50.306;8.570;2024-03-22T09:24:18;98184.50;;;14.63;63.10
20987;BME280;10652;50.306;8.570;2024-03-22T09:28:19;98177.50;;;14.90;62.48
20987;BME280;10652;50.306;8.570;2024-03-22T09:32:21;98174.94;;;15.17;62.09
20987;BME280;10652;50.306;8.570;2024-03-22T09:36:23;98160.13;;;15.41;61.20
20987;BME280;10652;50.306;8.570;2024-03-22T09:40:25;98157.28;;;15.44;60.58
20987;BME280;10652;50.306;8.570;2024-03-22T09:44:27;98148.94;;;15.50;60.58
20987;BME280;10652;50.306;8.570;2024-03-22T09:48:31;98140.59;;;15.56;59.50
20987;BME280;10652;50.306;8.570;2024-03-22T09:52:33;98138.72;;;15.58;59.95
20987;BME280;10652;50.306;8.570;2024-03-22T09:56:35;98127.81;;;15.63;58.68
20987;BME280;10652;50.306;8.570;2024-03-22T10:00:36;98124.16;;;15.78;59.14
20987;BME280;10652;50.306;8.570;2024-03-22T10:04:38;98116.34;;;15.89;58.54
20987;BME280;10652;50.306;8.570;2024-03-22T10:08:39;98108.31;;;16.03;57.96
20987;BME280;10652;50.306;8.570;2024-03-22T10:12:40;98095.78;;;16.18;56.76
20987;BME280;10652;50.306;8.570;2024-03-22T10:16:41;98095.69;;;16.32;56.25
20987;BME280;10652;50.306;8.570;2024-03-22T10:20:42;98097.47;;;16.44;55.73
20987;BME280;10652;50.306;8.570;2024-03-22T10:24:44;98087.00;;;16.43;53.71
20987;BME280;10652;50.306;8.570;2024-03-22T10:28:46;98083.91;;;16.49;54.56
20987;BME280;10652;50.306;8.570;2024-03-22T10:32:48;98080.53;;;16.59;53.08
20987;BME280;10652;50.306;8.570;2024-03-22T10:36:50;98084.84;;;16.73;53.55
20987;BME280;10652;50.306;8.570;2024-03-22T10:40:51;98084.53;;;16.78;52.47
20987;BME280;10652;50.306;8.570;2024-03-22T10:44:53;98074.19;;;16.62;52.75
20987;BME280;10652;50.306;8.570;2024-03-22T10:48:54;98076.25;;;16.44;52.27
20987;BME280;10652;50.306;8.570;2024-03-22T10:53:00;98075.00;;;16.37;52.86
20987;BME280;10652;50.306;8.570;2024-03-22T10:57:02;98057.50;;;16.47;53.03
20987;BME280;10652;50.306;8.570;2024-03-22T11:01:05;98049.31;;;16.76;52.78
20987;BME280;10652;50.306;8.570;2024-03-22T11:05:06;98036.09;;;16.87;51.71
20987;BME280;10652;50.306;8.570;2024-03-22T11:09:08;98034.19;;;16.89;51.10
20987;BME280;10652;50.306;8.570;2024-03-22T11:13:09;98035.06;;;16.77;50.94
20987;BME280;10652;50.306;8.570;2024-03-22T11:17:10;98026.81;;;16.69;50.73
20987;BME280;10652;50.306;8.570;2024-03-22T11:21:11;98015.19;;;16.58;51.12
20987;BME280;10652;50.306;8.570;2024-03-22T11:25:14;98014.66;;;16.66;51.22
20987;BME280;10652;50.306;8.570;2024-03-22T11:29:15;97995.78;;;16.82;51.46
20987;BME280;10652;50.306;8.570;2024-03-22T11:33:16;98005.06;;;17.00;50.69
20987;BME280;10652;50.306;8.570;2024-03-22T11:37:17;98001.00;;;17.07;49.78
20987;BME280;10652;50.306;8.570;2024-03-22T11:41:26;98007.78;;;17.11;49.53
20987;BME280;10652;50.306;8.570;2024-03-22T11:45:29;97996.41;;;17.09;49.27
20987;BME280;10652;50.306;8.570;2024-03-22T11:49:32;97988.03;;;17.26;49.70
20987;BME280;10652;50.306;8.570;2024-03-22T11:53:33;97980.94;;;17.62;49.62
20987;BME280;10652;50.306;8.570;2024-03-22T11:57:35;97984.31;;;17.64;49.13
20987;BME280;10652;50.306;8.570;2024-03-22T12:01:36;97973.72;;;17.75;48.38
20987;BME280;10652;50.306;8.570;2024-03-22T12:05:37;97967.09;;;17.91;48.40
20987;BME280;10652;50.306;8.570;2024-03-22T12:09:41;97961.91;;;18.01;48.33
20987;BME280;10652;50.306;8.570;2024-03-22T12:13:43;97952.25;;;17.89;48.23
20987;BME280;10652;50.306;8.570;2024-03-22T12:17:44;97959.13;;;17.80;48.99
20987;BME280;10652;50.306;8.570;2024-03-22T12:21:45;97950.81;;;17.85;48.88
20987;BME280;10652;50.306;8.570;2024-03-22T12:25:46;97942.22;;;17.92;48.84
20987;BME280;10652;50.306;8.570;2024-03-22T12:29:47;97941.13;;;17.95;49.12
20987;BME280;10652;50.306;8.570;2024-03-22T12:33:49;97930.00;;;17.79;48.60
20987;BME280;10652;50.306;8.570;2024-03-22T12:37:50;97928.53;;;17.52;48.64
20987;BME280;10652;50.306;8.570;2024-03-22T12:41:51;97923.56;;;17.48;49.41
20987;BME280;10652;50.306;8.570;2024-03-22T12:45:52;97924.63;;;17.45;49.58
20987;BME280;10652;50.306;8.570;2024-03-22T12:49:53;97912.53;;;17.30;49.34
20987;BME280;10652;50.306;8.570;2024-03-22T12:53:54;97919.50;;;17.31;49.46
20987;BME280;10652;50.306;8.570;2024-03-22T12:57:56;97909.56;;;17.11;48.96
20987;BME280;10652;50.306;8.570;2024-03-22T13:01:57;97909.84;;;16.95;48.53
20987;BME280;10652;50.306;8.570;2024-03-22T13:05:58;97908.66;;;16.99;49.47
20987;BME280;10652;50.306;8.570;2024-03-22T13:10:00;97909.38;;;17.25;49.58
20987;BME280;10652;50.306;8.570;2024-03-22T13:14:01;97915.28;;;17.29;48.99
20987;BME280;10652;50.306;8.570;2024-03-22T13:18:03;97903.75;;;17.17;48.96
20987;BME280;10652;50.306;8.570;2024-03-22T13:22:04;97901.81;;;17.08;49.75
20987;BME280;10652;50.306;8.570;2024-03-22T13:26:05;97895.88;;;16.93;50.22
20987;BME280;10652;50.306;8.570;2024-03-22T13:30:08;97890.59;;;16.70;51.04
20987;BME280;10652;50.306;8.570;2024-03-22T13:34:13;97888.97;;;16.43;50.80
20987;BME280;10652;50.306;8.570;2024-03-22T13:38:14;97887.88;;;16.22;50.44
20987;BME280;10652;50.306;8.570;2024-03-22T13:42:17;97868.47;;;15.98;50.61
20987;BME280;10652;50.306;8.570;2024-03-22T13:46:18;97866.88;;;15.83;50.93
20987;BME280;10652;50.306;8.570;2024-03-22T13:50:19;97869.97;;;15.76;51.02
20987;BME280;10652;50.306;8.570;2024-03-22T13:54:21;97862.00;;;15.76;50.98
20987;BME280;10652;50.306;8.570;2024-03-22T13:58:23;97859.59;;;15.73;50.52
20987;BME280;10652;50.306;8.570;2024-03-22T14:02:24;97848.06;;;15.74;49.99
20987;BME280;10652;50.306;8.570;2024-03-22T14:06:25;97848.56;;;15.80;49.36
20987;BME280;10652;50.306;8.570;2024-03-22T14:10:26;97841.16;;;15.72;49.31
20987;BME280;10652;50.306;8.570;2024-03-22T14:14:32;97828.78;;;15.60;49.28
20987;BME280;10652;50.306;8.570;2024-03-22T14:18:33;97816.78;;;15.54;49.79
20987;BME280;10652;50.306;8.570;2024-03-22T14:22:36;97817.34;;;15.47;50.00
20987;BME280;10652;50.306;8.570;2024-03-22T14:26:37;97815.88;;;15.43;50.48
20987;BME280;10652;50.306;8.570;2024-03-22T14:30:43;97808.47;;;15.35;50.57
20987;BME280;10652;50.306;8.570;2024-03-22T14:34:44;97798.63;;;15.37;51.40
20987;BME280;10652;50.306;8.570;2024-03-22T14:38:45;97799.47;;;15.38;51.36
20987;BME280;10652;50.306;8.570;2024-03-22T14:42:46;97790.28;;;15.30;52.05
20987;BME280;10652;50.306;8.570;2024-03-22T14:46:47;97765.28;;;15.34;52.25
20987;BME280;10652;50.306;8.570;2024-03-22T14:50:49;97764.44;;;15.34;52.46
20987;BME280;10652;50.306;8.570;2024-03-22T14:54:52;97762.19;;;15.28;53.42
20987;BME280;10652;50.306;8.570;2024-03-22T14:58:53;97754.59;;;15.23;53.62
20987;BME280;10652;50.306;8.570;2024-03-22T15:02:54;97746.03;;;15.20;53.71
20987;BME280;10652;50.306;8.570;2024-03-22T15:06:55;97744.56;;;15.16;54.38
20987;BME280;10652;50.306;8.570;2024-03-22T15:10:57;97732.28;;;15.15;54.35
20987;BME280;10652;50.306;8.570;2024-03-22T15:14:58;97732.28;;;15.15;53.93
20987;BME280;10652;50.306;8.570;2024-03-22T15:19:00;97712.19;;;15.12;53.97
20987;BME280;10652;50.306;8.570;2024-03-22T15:23:01;97698.16;;;15.23;54.19
20987;BME280;10652;50.306;8.570;2024-03-22T15:27:03;97697.41;;;15.33;54.31
20987;BME280;10652;50.306;8.570;2024-03-22T15:31:05;97694.09;;;15.43;54.00
20987;BME280;10652;50.306;8.570;2024-03-22T15:35:06;97684.13;;;15.46;54.08
20987;BME280;10652;50.306;8.570;2024-03-22T15:39:11;97680.75;;;15.44;53.88
20987;BME280;10652;50.306;8.570;2024-03-22T15:43:12;97676.53;;;15.42;54.15
20987;BME280;10652;50.306;8.570;2024-03-22T15:47:14;97675.91;;;15.38;54.17
20987;BME280;10652;50.306;8.570;2024-03-22T15:51:15;97666.03;;;15.40;54.28
20987;BME280;10652;50.306;8.570;2024-03-22T15:55:16;97653.66;;;15.41;53.88
20987;BME280;10652;50.306;8.570;2024-03-22T15:59:17;97656.81;;;15.46;53.64
20987;BME280;10652;50.306;8.570;2024-03-22T16:03:18;97646.13;;;15.47;53.61
20987;BME280;10652;50.306;8.570;2024-03-22T16:07:19;97631.47;;;15.54;53.55
20987;BME280;10652;50.306;8.570;2024-03-22T16:11:20;97634.91;;;15.67;53.30
20987;BME280;10652;50.306;8.570;2024-03-22T16:15:22;97632.56;;;15.75;53.96
20987;BME280;10652;50.306;8.570;2024-03-22T16:19:23;97628.00;;;15.77;55.14
20987;BME280;10652;50.306;8.570;2024-03-22T16:23:24;97614.25;;;15.72;54.64
20987;BME280;10652;50.306;8.570;2024-03-22T16:27:25;97616.72;;;15.63;53.02
20987;BME280;10652;50.306;8.570;2024-03-22T16:31:26;97608.47;;;15.55;51.73
20987;BME280;10652;50.306;8.570;2024-03-22T16:35:28;97621.28;;;15.37;50.91
20987;BME280;10652;50.306;8.570;2024-03-22T16:39:29;97619.97;;;15.19;50.59
20987;BME280;10652;50.306;8.570;2024-03-22T16:43:30;97616.09;;;14.99;51.01
20987;BME280;10652;50.306;8.570;2024-03-22T16:47:31;97607.47;;;14.84;51.14
20987;BME280;10652;50.306;8.570;2024-03-22T16:51:32;97606.66;;;14.71;50.93
20987;BME280;10652;50.306;8.570;2024-03-22T16:55:33;97605.06;;;14.56;51.54
20987;BME280;10652;50.306;8.570;2024-03-22T16:59:34;97601.78;;;14.40;51.69
20987;BME280;10652;50.306;8.570;2024-03-22T17:03:35;97596.72;;;14.24;52.90
20987;BME280;10652;50.306;8.570;2024-03-22T17:07:37;97601.25;;;14.10;53.33
20987;BME280;10652;50.306;8.570;2024-03-22T17:11:39;97601.56;;;13.92;53.73
20987;BME280;10652;50.306;8.570;2024-03-22T17:15:40;97592.66;;;13.81;54.59
20987;BME280;10652;50.306;8.570;2024-03-22T17:19:41;97595.28;;;13.68;55.62
20987;BME280;10652;50.306;8.570;2024-03-22T17:23:42;97596.00;;;13.57;56.45
20987;BME280;10652;50.306;8.570;2024-03-22T17:27:44;97588.75;;;13.47;56.99
20987;BME280;10652;50.306;8.570;2024-03-22T17:31:45;97595.69;;;13.35;57.80
20987;BME280;10652;50.306;8.570;2024-03-22T17:35:46;97586.78;;;13.24;58.44
20987;BME280;10652;50.306;8.570;2024-03-22T17:39:48;97591.16;;;13.10;58.82
20987;BME280;10652;50.306;8.570;2024-03-22T17:43:49;97585.19;;;12.94;59.83
20987;BME280;10652;50.306;8.570;2024-03-22T17:47:52;97588.88;;;12.78;60.23
20987;BME280;10652;50.306;8.570;2024-03-22T17:51:53;97593.13;;;12.66;61.41
20987;BME280;10652;50.306;8.570;2024-03-22T17:55:54;97586.94;;;12.53;61.49
20987;BME280;10652;50.306;8.570;2024-03-22T17:59:56;97586.81;;;12.40;62.33
20987;BME280;10652;50.306;8.570;2024-03-22T18:03:57;97579.56;;;12.30;62.84
20987;BME280;10652;50.306;8.570;2024-03-22T18:07:58;97571.66;;;12.15;63.40
20987;BME280;10652;50.306;8.570;2024-03-22T18:12:03;97567.03;;;12.05;64.31
20987;BME280;10652;50.306;8.570;2024-03-22T18:16:05;97576.25;;;11.98;64.81
20987;BME280;10652;50.306;8.570;2024-03-22T18:20:07;97566.44;;;11.86;65.44
20987;BME280;10652;50.306;8.570;2024-03-22T18:24:09;97566.44;;;11.71;66.09
20987;BME280;10652;50.306;8.570;2024-03-22T18:28:11;97563.66;;;11.59;66.76
20987;BME280;10652;50.306;8.570;2024-03-22T18:32:12;97553.88;;;11.47;67.93
20987;BME280;10652;50.306;8.570;2024-03-22T18:36:13;97555.59;;;11.32;68.39
20987;BME280;10652;50.306;8.570;2024-03-22T18:40:14;97548.69;;;11.00;68.72
20987;BME280;10652;50.306;8.570;2024-03-22T18:44:15;97553.19;;;10.82;69.89
20987;BME280;10652;50.306;8.570;2024-03-22T18:48:16;97534.66;;;10.54;70.05
20987;BME280;10652;50.306;8.570;2024-03-22T18:52:18;97538.03;;;10.40;71.94
20987;BME280;10652;50.306;8.570;2024-03-22T18:56:21;97539.22;;;10.34;72.81
20987;BME280;10652;50.306;8.570;2024-03-22T19:00:23;97533.69;;;10.23;72.65
20987;BME280;10652;50.306;8.570;2024-03-22T19:04:24;97523.59;;;10.16;73.24
20987;BME280;10652;50.306;8.570;2024-03-22T19:08:25;97519.53;;;10.10;73.60
20987;BME280;10652;50.306;8.570;2024-03-22T19:12:26;97512.91;;;10.03;73.94
20987;BME280;10652;50.306;8.570;2024-03-22T19:16:27;97511.88;;;9.90;74.34
20987;BME280;10652;50.306;8.570;2024-03-22T19:20:28;97509.63;;;9.82;74.63
20987;BME280;10652;50.306;8.570;2024-03-22T19:24:29;97512.19;;;9.67;74.27
20987;BME280;10652;50.306;8.570;2024-03-22T19:28:30;97507.59;;;9.37;74.97
20987;BME280;10652;50.306;8.570;2024-03-22T19:32:33;97504.81;;;9.23;76.28
20987;BME280;10652;50.306;8.570;2024-03-22T19:36:36;97501.72;;;9.15;76.75
20987;BME280;10652;50.306;8.570;2024-03-22T19:40:38;97493.09;;;9.13;76.85
20987;BME280;10652;50.306;8.570;2024-03-22T19:44:39;97493.72;;;9.01;76.26
20987;BME280;10652;50.306;8.570;2024-03-22T19:48:40;97493.22;;;8.76;76.66
20987;BME280;10652;50.306;8.570;2024-03-22T19:52:44;97486.75;;;8.65;77.67
20987;BME280;10652;50.306;8.570;2024-03-22T19:56:45;97481.50;;;8.65;78.25
20987;BME280;10652;50.306;8.570;2024-03-22T20:00:49;97476.25;;;8.65;78.43
20987;BME280;10652;50.306;8.570;2024-03-22T20:04:57;97472.59;;;8.51;77.48
20987;BME280;10652;50.306;8.570;2024-03-22T20:08:58;97472.88;;;8.45;78.34
20987;BME280;10652;50.306;8.570;2024-03-22T20:12:59;97472.41;;;8.37;78.58
20987;BME280;10652;50.306;8.570;2024-03-22T20:17:00;97472.78;;;8.29;78.97
20987;BME280;10652;50.306;8.570;2024-03-22T20:21:02;97458.22;;;8.23;78.99
20987;BME280;10652;50.306;8.570;2024-03-22T20:25:04;97460.19;;;8.18;79.95
20987;BME280;10652;50.306;8.570;2024-03-22T20:29:05;97463.28;;;8.08;79.85
20987;BME280;10652;50.306;8.570;2024-03-22T20:33:06;97451.56;;;7.98;80.18
